LKBE weather

Benešov Airport
Benešov, Central Bohemian Region, Czech Republic

Public forecast

Using degrees Celsius for public forecast. Weather courtesy of forecast.io.

Closest aviation weather report (METAR) to Benešov Airport

Closest report is Kbely Air Base, 23.2 nm (42.9 km) N. Retrieved 2019/12/14 12:00 UTC (39 minutes ago):

LKKB 141200Z 21016KT 9999 SCT023 BKN029 05/02 Q0990 NOSIG

Closest aviation forecast (TAF) to Benešov Airport

Closest forecast is Kbely Air Base, 23.2 nm (42.9 km) N. Retrieved 2019/12/14 12:00 UTC (39 minutes ago):

TAF COR LKKB 141100Z 1412/1512 21014KT 9999 BKN035 TEMPO 1412/1421 24018G34KT 6000 RA BKN022 OVC025 BECMG 1415/1417 CAVOK BECMG 1505/1507 BKN028 TEMPO 1506/1512 24018KT 6000 RA BKN012 OVC022